createdAt,value
2023-04-30T00:00:19.358Z,11.01
2023-04-30T00:02:23.610Z,10.94
2023-04-30T00:03:23.506Z,10.99
2023-04-30T00:05:27.461Z,10.95
2023-04-30T00:06:28.576Z,10.98
2023-04-30T00:08:31.510Z,10.90
2023-04-30T00:09:31.553Z,10.90
2023-04-30T00:11:35.565Z,10.84
2023-04-30T00:12:35.590Z,10.87
2023-04-30T00:14:39.672Z,10.83
2023-04-30T00:15:39.652Z,10.83
2023-04-30T00:17:32.689Z,10.80
2023-04-30T00:18:32.632Z,10.68
2023-04-30T00:20:36.664Z,10.78
2023-04-30T00:21:36.682Z,10.70
2023-04-30T00:23:40.757Z,10.69
2023-04-30T00:24:40.747Z,10.73
2023-04-30T00:26:44.821Z,10.68
2023-04-30T00:27:44.812Z,10.68
2023-04-30T00:29:38.054Z,10.65
2023-04-30T00:30:38.067Z,10.65
2023-04-30T00:32:31.831Z,10.70
2023-04-30T00:33:31.409Z,10.65
2023-04-30T00:35:35.461Z,10.63
2023-04-30T00:36:35.459Z,10.63
2023-04-30T00:38:39.494Z,10.57
2023-04-30T00:39:39.518Z,10.62
2023-04-30T00:41:43.589Z,10.54
2023-04-30T00:42:43.575Z,10.51
2023-04-30T00:44:47.649Z,10.43
2023-04-30T00:45:47.711Z,10.39
2023-04-30T00:47:51.901Z,10.44
2023-04-30T00:48:51.901Z,10.42
2023-04-30T00:51:07.222Z,10.42
2023-04-30T00:52:07.260Z,10.34
2023-04-30T00:54:11.451Z,10.36
2023-04-30T00:55:11.473Z,10.26
2023-04-30T00:57:04.411Z,10.29
2023-04-30T00:58:04.436Z,10.24
2023-04-30T01:00:08.474Z,10.18
2023-04-30T01:01:08.542Z,10.20
2023-04-30T01:03:12.665Z,9.99
2023-04-30T01:04:12.627Z,10.09
2023-04-30T01:06:16.672Z,10.09
2023-04-30T01:07:16.696Z,9.95
2023-04-30T01:09:20.717Z,10.06
2023-04-30T01:10:20.739Z,10.07
2023-04-30T01:12:24.827Z,10.09
2023-04-30T01:13:24.801Z,10.09
2023-04-30T01:15:28.866Z,10.01
2023-04-30T01:16:28.967Z,9.99
2023-04-30T01:18:32.972Z,9.98
2023-04-30T01:19:32.920Z,9.92
2023-04-30T01:21:36.960Z,9.93
2023-04-30T01:22:36.988Z,9.89
2023-04-30T01:24:41.035Z,9.93
2023-04-30T01:25:41.083Z,9.91
2023-04-30T01:27:34.055Z,9.95
2023-04-30T01:28:34.045Z,9.99
2023-04-30T01:30:38.083Z,9.93
2023-04-30T01:31:38.133Z,10.01
2023-04-30T01:33:42.156Z,9.95
2023-04-30T01:34:42.145Z,9.83
2023-04-30T01:36:46.182Z,9.80
2023-04-30T01:37:46.216Z,9.78
2023-04-30T01:39:50.244Z,9.81
2023-04-30T01:40:50.275Z,9.77
2023-04-30T01:42:54.308Z,9.77
2023-04-30T01:43:54.332Z,9.68
2023-04-30T01:45:58.409Z,9.70
2023-04-30T01:46:58.395Z,9.65
2023-04-30T01:49:03.057Z,9.55
2023-04-30T01:50:02.643Z,9.59
2023-04-30T01:52:06.668Z,9.55
2023-04-30T01:53:06.730Z,9.52
2023-04-30T01:55:22.102Z,9.52
2023-04-30T01:56:22.093Z,9.62
2023-04-30T01:58:26.137Z,9.52
2023-04-30T01:59:26.155Z,9.55
2023-04-30T02:01:30.202Z,9.42
2023-04-30T02:02:30.260Z,9.38
2023-04-30T02:04:34.252Z,9.35
2023-04-30T02:05:34.272Z,9.44
2023-04-30T02:07:27.260Z,9.37
2023-04-30T02:08:27.248Z,9.41
2023-04-30T02:10:31.281Z,9.26
2023-04-30T02:11:31.303Z,9.30
2023-04-30T02:13:35.340Z,9.27
2023-04-30T02:14:35.368Z,9.32
2023-04-30T02:16:39.431Z,9.41
2023-04-30T02:17:39.423Z,9.35
2023-04-30T02:19:43.449Z,9.31
2023-04-30T02:20:43.472Z,9.34
2023-04-30T02:22:47.544Z,9.34
2023-04-30T02:23:47.568Z,9.32
2023-04-30T02:25:51.598Z,9.26
2023-04-30T02:26:51.624Z,9.30
2023-04-30T02:28:55.783Z,9.27
2023-04-30T02:29:55.909Z,9.31
2023-04-30T02:31:59.751Z,9.19
2023-04-30T02:32:59.787Z,9.22
2023-04-30T02:35:03.817Z,9.12
2023-04-30T02:36:03.803Z,9.19
2023-04-30T02:38:07.843Z,9.20
2023-04-30T02:39:07.872Z,9.19
2023-04-30T02:41:11.890Z,9.06
2023-04-30T02:42:11.924Z,9.10
2023-04-30T02:44:15.941Z,9.16
2023-04-30T02:45:15.973Z,9.04
2023-04-30T02:47:08.960Z,9.08
2023-04-30T02:48:09.001Z,9.10
2023-04-30T02:50:13.014Z,9.10
2023-04-30T02:51:13.033Z,8.93
2023-04-30T02:53:17.083Z,8.97
2023-04-30T02:54:17.092Z,9.00
2023-04-30T02:56:21.116Z,8.98
2023-04-30T02:57:21.141Z,8.98
2023-04-30T02:59:25.231Z,9.01
2023-04-30T03:00:25.206Z,8.97
2023-04-30T03:02:29.283Z,8.97
2023-04-30T03:03:29.290Z,8.88
2023-04-30T03:05:33.318Z,8.88
2023-04-30T03:06:33.348Z,8.94
2023-04-30T03:08:37.450Z,8.82
2023-04-30T03:09:37.406Z,8.86
2023-04-30T03:11:41.434Z,8.89
2023-04-30T03:12:41.438Z,8.78
2023-04-30T03:14:45.465Z,8.85
2023-04-30T03:15:45.485Z,8.79
2023-04-30T03:17:38.454Z,8.73
2023-04-30T03:18:38.467Z,8.78
2023-04-30T03:20:42.524Z,8.76
2023-04-30T03:21:42.526Z,8.76
2023-04-30T03:23:46.575Z,8.80
2023-04-30T03:24:46.593Z,8.80
2023-04-30T03:26:50.622Z,8.60
2023-04-30T03:27:50.649Z,8.60
2023-04-30T03:29:55.012Z,8.71
2023-04-30T03:30:54.726Z,8.60
2023-04-30T03:32:58.776Z,8.57
2023-04-30T03:33:58.857Z,8.60
2023-04-30T03:36:02.899Z,8.64
2023-04-30T03:37:02.925Z,8.60
2023-04-30T03:38:02.956Z,8.60
2023-04-30T03:39:03.040Z,8.61
2023-04-30T03:40:03.014Z,8.50
2023-04-30T03:41:03.042Z,8.55
2023-04-30T03:42:03.074Z,8.54
2023-04-30T03:43:03.100Z,8.45
2023-04-30T03:44:03.126Z,8.55
2023-04-30T03:45:03.161Z,8.52
2023-04-30T03:46:03.224Z,8.43
2023-04-30T03:47:03.218Z,8.45
2023-04-30T03:48:03.335Z,8.45
2023-04-30T03:49:03.273Z,8.42
2023-04-30T03:50:03.300Z,8.49
2023-04-30T03:51:03.325Z,8.40
2023-04-30T03:52:03.367Z,8.43
2023-04-30T03:53:03.386Z,8.37
2023-04-30T03:54:03.413Z,8.43
2023-04-30T03:55:03.447Z,8.40
2023-04-30T03:56:03.480Z,8.39
2023-04-30T03:57:03.498Z,8.28
2023-04-30T03:58:03.530Z,8.43
2023-04-30T03:59:03.573Z,8.34
2023-04-30T04:00:03.610Z,8.42
2023-04-30T04:01:03.614Z,8.37
2023-04-30T04:02:03.690Z,8.42
2023-04-30T04:03:03.712Z,8.36
2023-04-30T04:04:03.725Z,8.37
2023-04-30T04:05:03.728Z,8.29
2023-04-30T04:06:03.805Z,8.29
2023-04-30T04:07:03.799Z,8.34
2023-04-30T04:08:03.830Z,8.28
2023-04-30T04:09:03.860Z,8.31
2023-04-30T04:10:03.874Z,8.31
2023-04-30T04:11:03.902Z,8.40
2023-04-30T04:12:03.940Z,8.46
2023-04-30T04:13:03.958Z,8.39
2023-04-30T04:14:03.990Z,8.45
2023-04-30T04:15:04.017Z,8.43
2023-04-30T04:16:04.088Z,8.37
2023-04-30T04:17:04.074Z,8.37
2023-04-30T04:18:04.182Z,8.36
2023-04-30T04:19:04.154Z,8.39
2023-04-30T04:20:04.168Z,8.37
2023-04-30T04:21:04.190Z,8.42
2023-04-30T04:22:04.221Z,8.37
2023-04-30T04:23:04.262Z,8.40
2023-04-30T04:24:04.274Z,8.37
2023-04-30T04:25:04.300Z,8.39
2023-04-30T04:26:04.332Z,8.37
2023-04-30T04:27:04.365Z,8.40
2023-04-30T04:28:04.398Z,8.42
2023-04-30T04:29:04.422Z,8.40
2023-04-30T04:30:04.448Z,8.31
2023-04-30T04:31:04.473Z,8.34
2023-04-30T04:32:04.610Z,8.40
2023-04-30T04:33:04.572Z,8.40
2023-04-30T04:34:04.641Z,8.47
2023-04-30T04:35:04.588Z,8.49
2023-04-30T04:36:04.614Z,8.49
2023-04-30T04:37:04.643Z,8.46
2023-04-30T04:38:04.684Z,8.54
2023-04-30T04:39:04.701Z,8.47
2023-04-30T04:40:04.761Z,8.47
2023-04-30T04:41:04.756Z,8.43
2023-04-30T04:42:04.782Z,8.42
2023-04-30T04:43:04.820Z,8.42
2023-04-30T04:44:04.875Z,8.40
2023-04-30T04:45:04.871Z,8.36
2023-04-30T04:46:04.939Z,8.34
2023-04-30T04:47:04.925Z,8.37
2023-04-30T04:48:04.979Z,8.40
2023-04-30T04:49:04.992Z,8.46
2023-04-30T04:50:05.047Z,8.43
2023-04-30T04:51:05.046Z,8.42
2023-04-30T04:52:05.071Z,8.50
2023-04-30T04:53:05.100Z,8.49
2023-04-30T04:54:05.128Z,8.55
2023-04-30T04:55:05.154Z,8.45
2023-04-30T04:56:05.198Z,8.46
2023-04-30T04:57:05.221Z,8.43
2023-04-30T04:58:05.239Z,8.49
2023-04-30T04:59:05.282Z,8.49
2023-04-30T05:00:05.301Z,8.49
2023-04-30T05:01:05.332Z,8.40
2023-04-30T05:02:05.419Z,8.43
2023-04-30T05:03:05.501Z,8.57
2023-04-30T05:04:05.463Z,8.49
2023-04-30T05:05:05.442Z,8.46
2023-04-30T05:06:05.503Z,8.46
2023-04-30T05:07:05.508Z,8.43
2023-04-30T05:08:05.534Z,8.45
2023-04-30T05:09:05.558Z,8.43
2023-04-30T05:10:05.599Z,8.46
2023-04-30T05:11:05.615Z,8.46
2023-04-30T05:12:05.641Z,8.49
2023-04-30T05:13:05.674Z,8.54
2023-04-30T05:14:05.698Z,8.55
2023-04-30T05:15:05.727Z,8.67
2023-04-30T05:16:05.806Z,8.70
2023-04-30T05:17:05.789Z,8.61
2023-04-30T05:18:05.872Z,8.55
2023-04-30T05:19:05.851Z,8.71
2023-04-30T05:20:05.875Z,8.70
2023-04-30T05:21:05.930Z,8.73
2023-04-30T05:22:05.938Z,8.61
2023-04-30T05:23:05.961Z,8.70
2023-04-30T05:24:05.983Z,8.75
2023-04-30T05:25:06.031Z,8.73
2023-04-30T05:26:06.073Z,8.79
2023-04-30T05:27:06.070Z,8.73
2023-04-30T05:28:06.102Z,8.76
2023-04-30T05:29:06.141Z,8.79
2023-04-30T05:30:06.201Z,8.78
2023-04-30T05:31:06.200Z,8.85
2023-04-30T05:32:06.274Z,8.80
2023-04-30T05:33:06.312Z,8.82
2023-04-30T05:34:06.279Z,8.83
2023-04-30T05:35:06.302Z,8.80
2023-04-30T05:36:06.336Z,8.91
2023-04-30T05:37:06.357Z,8.98
2023-04-30T05:38:06.390Z,8.83
2023-04-30T05:39:06.417Z,8.88
2023-04-30T05:40:06.453Z,8.96
2023-04-30T05:41:06.473Z,8.86
2023-04-30T05:42:06.504Z,8.94
2023-04-30T05:43:06.532Z,9.12
2023-04-30T05:44:06.603Z,9.15
2023-04-30T05:45:06.591Z,9.10
2023-04-30T05:46:06.804Z,9.12
2023-04-30T05:47:06.650Z,9.10
2023-04-30T05:48:06.773Z,9.19
2023-04-30T05:49:06.705Z,9.13
2023-04-30T05:50:06.735Z,9.19
2023-04-30T05:51:06.784Z,9.12
2023-04-30T05:52:06.798Z,9.22
2023-04-30T05:53:06.824Z,9.15
2023-04-30T05:54:06.864Z,9.19
2023-04-30T05:55:06.882Z,9.26
2023-04-30T05:56:06.908Z,9.16
2023-04-30T05:57:06.942Z,9.23
2023-04-30T05:58:06.974Z,9.27
2023-04-30T05:59:07.029Z,9.24
2023-04-30T06:00:07.071Z,9.24
2023-04-30T06:01:07.055Z,9.32
2023-04-30T06:02:07.151Z,9.30
2023-04-30T06:03:07.174Z,9.31
2023-04-30T06:04:07.146Z,9.27
2023-04-30T06:05:07.238Z,9.31
2023-04-30T06:06:07.260Z,9.35
2023-04-30T06:07:07.230Z,9.37
2023-04-30T06:08:07.261Z,9.44
2023-04-30T06:09:07.299Z,9.41
2023-04-30T06:10:07.320Z,9.45
2023-04-30T06:11:07.348Z,9.59
2023-04-30T06:12:07.411Z,9.58
2023-04-30T06:13:07.406Z,9.53
2023-04-30T06:14:07.434Z,9.59
2023-04-30T06:15:07.464Z,9.65
2023-04-30T06:16:07.532Z,9.59
2023-04-30T06:17:07.530Z,9.62
2023-04-30T06:18:07.627Z,9.63
2023-04-30T06:19:07.579Z,9.74
2023-04-30T06:20:07.621Z,9.74
2023-04-30T06:21:07.643Z,9.80
2023-04-30T06:22:07.685Z,9.80
2023-04-30T06:23:07.698Z,9.83
2023-04-30T06:24:07.738Z,9.91
2023-04-30T06:25:07.755Z,9.91
2023-04-30T06:26:07.786Z,9.91
2023-04-30T06:27:07.817Z,9.93
2023-04-30T06:28:07.843Z,9.86
2023-04-30T06:29:07.880Z,9.92
2023-04-30T06:30:07.908Z,9.83
2023-04-30T06:31:08.028Z,9.96
2023-04-30T06:32:08.631Z,10.01
2023-04-30T06:33:08.016Z,9.99
2023-04-30T06:34:08.020Z,10.06
2023-04-30T06:35:08.051Z,10.01
2023-04-30T06:36:08.081Z,9.98
2023-04-30T06:37:08.107Z,10.04
2023-04-30T06:38:08.141Z,10.06
2023-04-30T06:39:08.166Z,10.09
2023-04-30T06:40:08.198Z,10.20
2023-04-30T06:41:08.234Z,10.11
2023-04-30T06:42:08.256Z,10.20
2023-04-30T06:43:08.289Z,10.18
2023-04-30T06:44:08.323Z,10.22
2023-04-30T06:45:08.347Z,10.26
2023-04-30T06:46:08.396Z,10.22
2023-04-30T06:47:08.403Z,10.28
2023-04-30T06:48:08.506Z,10.28
2023-04-30T06:49:08.466Z,10.32
2023-04-30T06:50:08.495Z,10.36
2023-04-30T06:51:10.484Z,10.39
2023-04-30T06:52:08.560Z,10.36
2023-04-30T06:53:08.581Z,10.38
2023-04-30T06:54:08.612Z,10.52
2023-04-30T06:55:08.647Z,10.57
2023-04-30T06:56:08.674Z,10.49
2023-04-30T06:57:08.700Z,10.60
2023-04-30T06:58:08.732Z,10.69
2023-04-30T06:59:08.760Z,10.68
2023-04-30T07:00:08.887Z,10.69
2023-04-30T07:01:08.872Z,10.73
2023-04-30T07:02:08.869Z,10.73
2023-04-30T07:03:08.965Z,10.81
2023-04-30T07:04:08.910Z,10.93
2023-04-30T07:05:08.938Z,10.93
2023-04-30T07:06:09.022Z,10.90
2023-04-30T07:07:08.998Z,10.88
2023-04-30T07:08:09.028Z,10.95
2023-04-30T07:09:09.081Z,10.95
2023-04-30T07:10:09.083Z,10.94
2023-04-30T07:11:09.123Z,10.98
2023-04-30T07:12:09.155Z,10.98
2023-04-30T07:13:09.182Z,11.08
2023-04-30T07:14:09.247Z,11.03
2023-04-30T07:15:09.272Z,11.20
2023-04-30T07:16:09.312Z,11.28
2023-04-30T07:17:09.293Z,11.28
2023-04-30T07:18:09.359Z,11.28
2023-04-30T07:19:09.368Z,11.33
2023-04-30T07:20:09.383Z,11.35
2023-04-30T07:21:09.418Z,11.42
2023-04-30T07:22:09.461Z,11.54
2023-04-30T07:23:09.474Z,11.51
2023-04-30T07:24:09.562Z,11.46
2023-04-30T07:25:09.544Z,11.53
2023-04-30T07:26:09.564Z,11.46
2023-04-30T07:27:09.596Z,11.64
2023-04-30T07:28:09.629Z,11.57
2023-04-30T07:29:09.656Z,11.70
2023-04-30T07:30:09.695Z,11.67
2023-04-30T07:31:09.728Z,11.72
2023-04-30T07:32:09.747Z,11.66
2023-04-30T07:33:09.859Z,11.74
2023-04-30T07:34:09.805Z,11.70
2023-04-30T07:35:09.837Z,11.78
2023-04-30T07:36:09.870Z,11.90
2023-04-30T07:37:09.899Z,11.94
2023-04-30T07:38:09.928Z,12.03
2023-04-30T07:39:10.012Z,12.12
2023-04-30T07:40:10.102Z,12.04
2023-04-30T07:41:10.022Z,11.94
2023-04-30T07:42:10.058Z,11.98
2023-04-30T07:43:10.083Z,12.04
2023-04-30T07:44:10.117Z,12.12
2023-04-30T07:45:10.151Z,12.18
2023-04-30T07:46:10.194Z,12.23
2023-04-30T07:47:10.206Z,12.26
2023-04-30T07:48:10.286Z,12.16
2023-04-30T07:49:10.270Z,12.16
2023-04-30T07:50:10.299Z,12.16
2023-04-30T07:51:10.348Z,12.33
2023-04-30T07:52:10.388Z,12.31
2023-04-30T07:53:10.395Z,12.33
2023-04-30T07:54:10.423Z,12.36
2023-04-30T07:55:10.457Z,12.44
2023-04-30T07:56:10.485Z,12.55
2023-04-30T07:57:10.520Z,12.73
2023-04-30T07:58:10.552Z,12.87
2023-04-30T07:59:10.585Z,12.87
2023-04-30T08:00:10.615Z,12.95
2023-04-30T08:01:10.653Z,13.04
2023-04-30T08:02:10.716Z,13.10
2023-04-30T08:03:10.743Z,13.14
2023-04-30T08:04:10.897Z,13.22
2023-04-30T08:05:10.763Z,13.29
2023-04-30T08:06:10.841Z,13.36
2023-04-30T08:07:10.833Z,13.46
2023-04-30T08:08:10.867Z,13.62
2023-04-30T08:09:10.892Z,13.57
2023-04-30T08:10:10.933Z,13.51
2023-04-30T08:11:11.073Z,13.46
2023-04-30T08:12:11.093Z,13.43
2023-04-30T08:13:11.021Z,13.44
2023-04-30T08:14:11.049Z,13.55
2023-04-30T08:15:11.097Z,13.63
2023-04-30T08:16:11.165Z,13.79
2023-04-30T08:17:11.151Z,13.86
2023-04-30T08:18:11.225Z,14.01
2023-04-30T08:19:11.212Z,13.96
2023-04-30T08:20:11.240Z,13.99
2023-04-30T08:21:11.276Z,13.93
2023-04-30T08:22:11.299Z,13.98
2023-04-30T08:23:11.342Z,14.02
2023-04-30T08:24:11.362Z,14.09
2023-04-30T08:25:11.397Z,14.21
2023-04-30T08:26:11.429Z,14.26
2023-04-30T08:27:11.461Z,14.23
2023-04-30T08:28:11.514Z,14.26
2023-04-30T08:29:11.526Z,14.20
2023-04-30T08:30:11.558Z,14.34
2023-04-30T08:31:11.591Z,14.31
2023-04-30T08:32:11.713Z,14.49
2023-04-30T08:33:11.701Z,14.41
2023-04-30T08:34:11.684Z,14.53
2023-04-30T08:35:11.723Z,14.60
2023-04-30T08:36:11.750Z,14.59
2023-04-30T08:37:11.782Z,14.61
2023-04-30T08:38:11.814Z,14.69
2023-04-30T08:39:11.884Z,14.72
2023-04-30T08:40:11.874Z,14.78
2023-04-30T08:41:11.908Z,14.78
2023-04-30T08:42:11.940Z,14.83
2023-04-30T08:43:11.985Z,14.85
2023-04-30T08:44:12.006Z,14.91
2023-04-30T08:45:12.034Z,14.95
2023-04-30T08:46:12.142Z,15.07
2023-04-30T08:47:12.104Z,15.07
2023-04-30T08:48:12.133Z,15.05
2023-04-30T08:49:12.166Z,15.16
2023-04-30T08:50:12.198Z,15.23
2023-04-30T08:51:12.253Z,15.31
2023-04-30T08:52:12.259Z,15.38
2023-04-30T08:53:12.294Z,15.46
2023-04-30T08:54:12.349Z,15.48
2023-04-30T08:55:12.366Z,15.56
2023-04-30T08:56:12.406Z,15.51
2023-04-30T08:57:12.430Z,15.62
2023-04-30T08:58:12.456Z,15.56
2023-04-30T08:59:12.495Z,15.58
2023-04-30T09:00:12.541Z,15.64
2023-04-30T09:01:12.613Z,15.56
2023-04-30T09:02:12.768Z,15.66
2023-04-30T09:03:12.772Z,15.64
2023-04-30T09:04:12.688Z,15.68
2023-04-30T09:05:12.692Z,15.70
2023-04-30T09:06:12.755Z,15.60
2023-04-30T09:07:12.760Z,15.62
2023-04-30T09:08:12.792Z,15.64
2023-04-30T09:09:12.821Z,15.81
2023-04-30T09:10:12.855Z,15.96
2023-04-30T09:11:12.888Z,15.89
2023-04-30T09:12:12.920Z,15.98
2023-04-30T09:13:12.955Z,15.98
2023-04-30T09:14:12.987Z,15.99
2023-04-30T09:15:13.021Z,16.10
2023-04-30T09:16:13.090Z,16.06
2023-04-30T09:17:13.096Z,16.18
2023-04-30T09:18:13.188Z,16.30
2023-04-30T09:19:13.152Z,16.30
2023-04-30T09:20:13.211Z,16.36
2023-04-30T09:21:13.226Z,16.40
2023-04-30T09:22:13.250Z,16.34
2023-04-30T09:23:13.283Z,16.42
2023-04-30T09:24:13.316Z,16.57
2023-04-30T09:25:13.362Z,16.60
2023-04-30T09:26:13.388Z,16.66
2023-04-30T09:27:13.431Z,16.72
2023-04-30T09:28:13.459Z,16.70
2023-04-30T09:29:13.483Z,16.85
2023-04-30T09:30:13.517Z,16.75
2023-04-30T09:31:13.612Z,16.80
2023-04-30T09:32:13.587Z,16.65
2023-04-30T09:33:13.649Z,16.73
2023-04-30T09:34:13.653Z,16.75
2023-04-30T09:35:13.704Z,16.84
2023-04-30T09:36:13.723Z,16.65
2023-04-30T09:37:13.774Z,16.57
2023-04-30T09:38:13.813Z,16.37
2023-04-30T09:39:15.848Z,16.34
2023-04-30T09:40:13.915Z,16.41
2023-04-30T09:41:13.901Z,16.47
2023-04-30T09:42:14.122Z,16.55
2023-04-30T09:43:13.960Z,16.67
2023-04-30T09:44:13.987Z,16.82
2023-04-30T09:45:14.027Z,17.00
2023-04-30T09:46:14.166Z,17.07
2023-04-30T09:47:14.116Z,17.18
2023-04-30T09:48:17.549Z,17.28
2023-04-30T09:49:14.165Z,17.30
2023-04-30T09:50:14.190Z,17.43
2023-04-30T09:51:14.229Z,17.55
2023-04-30T09:52:14.279Z,17.63
2023-04-30T09:53:14.340Z,17.81
2023-04-30T09:54:14.351Z,17.94
2023-04-30T09:55:14.365Z,17.87
2023-04-30T09:56:14.416Z,17.98
2023-04-30T09:57:14.450Z,18.01
2023-04-30T09:58:14.467Z,18.09
2023-04-30T09:59:14.502Z,17.96
2023-04-30T10:00:14.536Z,17.92
2023-04-30T10:01:14.607Z,17.95
2023-04-30T10:02:14.616Z,17.83
2023-04-30T10:03:14.694Z,17.79
2023-04-30T10:04:14.713Z,17.86
2023-04-30T10:05:14.716Z,17.96
2023-04-30T10:06:14.777Z,18.09
2023-04-30T10:07:16.083Z,17.99
2023-04-30T10:08:14.807Z,17.79
2023-04-30T10:09:14.851Z,17.81
2023-04-30T10:10:14.906Z,17.94
2023-04-30T10:11:14.939Z,17.98
2023-04-30T10:12:14.976Z,18.05
2023-04-30T10:13:14.979Z,18.20
2023-04-30T10:14:15.021Z,18.42
2023-04-30T10:15:15.054Z,18.49
2023-04-30T10:16:15.114Z,18.57
2023-04-30T10:17:15.120Z,18.64
2023-04-30T10:18:15.207Z,18.83
2023-04-30T10:19:15.194Z,18.83
2023-04-30T10:20:15.265Z,18.91
2023-04-30T10:21:15.264Z,18.86
2023-04-30T10:22:15.310Z,18.94
2023-04-30T10:23:15.334Z,19.01
2023-04-30T10:24:15.360Z,19.05
2023-04-30T10:25:15.395Z,19.06
2023-04-30T10:26:15.430Z,19.21
2023-04-30T10:27:15.469Z,19.35
2023-04-30T10:28:15.601Z,19.25
2023-04-30T10:29:15.539Z,19.15
2023-04-30T10:30:15.572Z,19.10
2023-04-30T10:31:15.609Z,18.99
2023-04-30T10:32:15.715Z,19.07
2023-04-30T10:33:16.873Z,19.07
2023-04-30T10:34:15.725Z,19.12
2023-04-30T10:35:15.759Z,19.16
2023-04-30T10:36:15.803Z,19.16
2023-04-30T10:37:15.817Z,19.09
2023-04-30T10:38:15.852Z,19.06
2023-04-30T10:39:15.895Z,18.89
2023-04-30T10:40:15.919Z,18.66
2023-04-30T10:41:15.985Z,18.62
2023-04-30T10:42:15.990Z,18.46
2023-04-30T10:43:16.027Z,18.50
2023-04-30T10:44:16.064Z,18.51
2023-04-30T10:45:16.108Z,18.68
2023-04-30T10:46:16.220Z,18.75
2023-04-30T10:47:16.171Z,18.83
2023-04-30T10:48:16.271Z,19.09
2023-04-30T10:49:16.242Z,18.97
2023-04-30T10:50:16.276Z,18.72
2023-04-30T10:51:16.309Z,18.75
2023-04-30T10:52:16.457Z,18.86
2023-04-30T10:53:16.382Z,19.10
2023-04-30T10:54:16.424Z,19.28
2023-04-30T10:55:16.471Z,19.34
2023-04-30T10:56:16.506Z,19.42
2023-04-30T10:57:16.518Z,19.45
2023-04-30T10:58:16.565Z,19.57
2023-04-30T10:59:16.595Z,19.68
2023-04-30T11:00:16.634Z,19.68
2023-04-30T11:01:16.691Z,19.68
2023-04-30T11:02:16.695Z,19.64
2023-04-30T11:03:16.741Z,19.60
2023-04-30T11:04:16.837Z,19.76
2023-04-30T11:05:16.972Z,19.35
2023-04-30T11:06:16.879Z,19.07
2023-04-30T11:07:16.884Z,19.06
2023-04-30T11:08:16.914Z,19.07
2023-04-30T11:09:16.957Z,19.30
2023-04-30T11:10:16.985Z,19.35
2023-04-30T11:11:17.015Z,19.71
2023-04-30T11:12:17.053Z,19.82
2023-04-30T11:13:17.085Z,19.97
2023-04-30T11:14:17.128Z,19.55
2023-04-30T11:15:17.158Z,19.23
2023-04-30T11:16:17.267Z,19.07
2023-04-30T11:17:17.232Z,19.15
2023-04-30T11:18:17.264Z,19.05
2023-04-30T11:19:17.318Z,18.91
2023-04-30T11:20:17.344Z,18.91
2023-04-30T11:21:17.369Z,18.89
2023-04-30T11:22:17.410Z,18.74
2023-04-30T11:23:25.314Z,18.72
2023-04-30T11:24:17.482Z,18.75
2023-04-30T11:25:17.517Z,18.84
2023-04-30T11:26:17.549Z,19.05
2023-04-30T11:27:17.590Z,19.28
2023-04-30T11:28:17.626Z,19.34
2023-04-30T11:29:17.714Z,19.39
2023-04-30T11:30:17.704Z,19.47
2023-04-30T11:31:17.777Z,19.25
2023-04-30T11:32:17.866Z,19.27
2023-04-30T11:33:17.808Z,19.28
2023-04-30T11:34:17.839Z,19.23
2023-04-30T11:35:17.866Z,19.28
2023-04-30T11:36:17.904Z,19.35
2023-04-30T11:37:17.944Z,19.58
2023-04-30T11:38:17.989Z,19.67
2023-04-30T11:39:18.013Z,19.80
2023-04-30T11:40:18.049Z,19.95
2023-04-30T11:41:18.082Z,20.04
2023-04-30T11:42:18.117Z,20.27
2023-04-30T11:43:18.154Z,20.42
2023-04-30T11:44:18.196Z,20.46
2023-04-30T11:45:18.282Z,20.61
2023-04-30T11:46:18.311Z,20.60
2023-04-30T11:47:18.299Z,20.50
2023-04-30T11:48:18.330Z,20.54
2023-04-30T11:49:18.366Z,20.48
2023-04-30T11:50:18.407Z,20.40
2023-04-30T11:51:18.445Z,20.53
2023-04-30T11:52:18.484Z,20.54
2023-04-30T11:53:18.510Z,20.60
2023-04-30T11:54:18.567Z,20.85
2023-04-30T11:55:18.581Z,20.94
2023-04-30T11:56:18.645Z,20.93
2023-04-30T11:57:18.661Z,20.94
2023-04-30T11:58:18.689Z,20.88
2023-04-30T11:59:18.739Z,20.73
2023-04-30T12:00:18.766Z,20.60
2023-04-30T12:01:18.798Z,20.13
2023-04-30T12:02:18.867Z,20.00
2023-04-30T12:03:18.976Z,20.04
2023-04-30T12:04:18.925Z,20.22
2023-04-30T12:05:18.955Z,20.23
2023-04-30T12:06:19.024Z,20.17
2023-04-30T12:07:20.769Z,20.25
2023-04-30T12:08:19.050Z,20.48
2023-04-30T12:09:19.088Z,20.64
2023-04-30T12:10:19.123Z,20.71
2023-04-30T12:11:19.161Z,20.83
2023-04-30T12:12:19.198Z,20.94
2023-04-30T12:13:19.230Z,21.01
2023-04-30T12:14:19.274Z,21.22
2023-04-30T12:15:19.317Z,21.22
2023-04-30T12:16:19.365Z,21.27
2023-04-30T12:17:19.371Z,21.31
2023-04-30T12:18:19.408Z,21.36
2023-04-30T12:19:19.448Z,21.43
2023-04-30T12:20:19.487Z,21.43
2023-04-30T12:21:19.519Z,21.42
2023-04-30T12:22:19.558Z,21.53
2023-04-30T12:23:19.593Z,21.43
2023-04-30T12:24:19.634Z,21.34
2023-04-30T12:25:19.663Z,21.42
2023-04-30T12:26:19.711Z,21.46
2023-04-30T12:27:19.744Z,21.37
2023-04-30T12:28:19.870Z,21.33
2023-04-30T12:29:19.809Z,21.38
2023-04-30T12:30:19.850Z,21.16
2023-04-30T12:31:19.973Z,21.03
2023-04-30T12:32:20.155Z,20.93
2023-04-30T12:33:20.060Z,20.82
2023-04-30T12:34:19.991Z,20.50
2023-04-30T12:35:20.032Z,20.30
2023-04-30T12:36:20.075Z,20.42
2023-04-30T12:37:20.104Z,20.48
2023-04-30T12:38:20.154Z,20.57
2023-04-30T12:39:20.179Z,20.91
2023-04-30T12:40:20.214Z,20.98
2023-04-30T12:41:20.258Z,21.03
2023-04-30T12:42:20.285Z,21.05
2023-04-30T12:43:20.318Z,21.22
2023-04-30T12:44:20.365Z,21.40
2023-04-30T12:45:20.400Z,21.48
2023-04-30T12:46:20.486Z,21.45
2023-04-30T12:47:20.480Z,21.40
2023-04-30T12:48:20.506Z,21.53
2023-04-30T12:49:20.540Z,21.67
2023-04-30T12:50:20.580Z,21.75
2023-04-30T12:51:20.613Z,21.83
2023-04-30T12:52:20.648Z,21.91
2023-04-30T12:53:20.694Z,21.90
2023-04-30T12:54:20.722Z,22.02
2023-04-30T12:55:20.761Z,22.02
2023-04-30T12:56:20.792Z,22.06
2023-04-30T12:57:20.859Z,22.09
2023-04-30T12:58:20.870Z,21.82
2023-04-30T12:59:20.906Z,21.89
2023-04-30T13:00:20.945Z,21.94
2023-04-30T13:01:21.063Z,21.91
2023-04-30T13:02:21.084Z,21.90
2023-04-30T13:03:21.284Z,21.91
2023-04-30T13:04:21.086Z,22.02
2023-04-30T13:05:21.124Z,21.96
2023-04-30T13:06:21.195Z,21.90
2023-04-30T13:07:21.204Z,21.86
2023-04-30T13:08:21.246Z,22.01
2023-04-30T13:09:21.271Z,21.86
2023-04-30T13:10:21.315Z,22.02
2023-04-30T13:11:21.344Z,22.02
2023-04-30T13:12:21.404Z,21.86
2023-04-30T13:13:21.420Z,21.83
2023-04-30T13:14:21.461Z,21.82
2023-04-30T13:15:21.491Z,21.79
2023-04-30T13:16:21.581Z,21.77
2023-04-30T13:17:21.626Z,21.83
2023-04-30T13:18:21.613Z,21.86
2023-04-30T13:19:21.638Z,21.90
2023-04-30T13:20:21.676Z,22.04
2023-04-30T13:21:21.717Z,21.98
2023-04-30T13:22:21.765Z,22.02
2023-04-30T13:23:21.786Z,22.12
2023-04-30T13:24:21.827Z,22.05
2023-04-30T13:25:21.857Z,22.14
2023-04-30T13:26:21.942Z,22.24
2023-04-30T13:27:21.937Z,22.35
2023-04-30T13:28:21.977Z,22.42
2023-04-30T13:29:22.033Z,22.30
2023-04-30T13:30:22.055Z,22.09
2023-04-30T13:31:22.106Z,22.01
2023-04-30T13:32:22.139Z,22.04
2023-04-30T13:33:22.154Z,22.06
2023-04-30T13:34:22.197Z,22.09
2023-04-30T13:35:22.231Z,21.98
2023-04-30T13:36:22.270Z,21.99
2023-04-30T13:37:22.305Z,22.01
2023-04-30T13:38:22.348Z,22.02
2023-04-30T13:39:22.379Z,22.21
2023-04-30T13:40:22.419Z,22.41
2023-04-30T13:41:22.459Z,22.39
2023-04-30T13:42:22.492Z,22.45
2023-04-30T13:43:22.530Z,22.56
2023-04-30T13:44:22.573Z,22.52
2023-04-30T13:45:22.605Z,22.59
2023-04-30T13:46:22.699Z,22.57
2023-04-30T13:47:22.713Z,22.63
2023-04-30T13:48:22.829Z,22.54
2023-04-30T13:49:22.750Z,22.41
2023-04-30T13:50:22.791Z,22.42
2023-04-30T13:51:22.833Z,22.41
2023-04-30T13:52:22.869Z,22.49
2023-04-30T13:53:22.916Z,22.51
2023-04-30T13:54:22.951Z,22.35
2023-04-30T13:55:22.978Z,22.42
2023-04-30T13:56:23.013Z,22.33
2023-04-30T13:57:23.052Z,22.39
2023-04-30T13:58:23.087Z,22.39
2023-04-30T13:59:23.199Z,22.41
2023-04-30T14:00:23.166Z,22.39
2023-04-30T14:01:23.344Z,22.38
2023-04-30T14:02:23.294Z,22.31
2023-04-30T14:03:23.372Z,22.36
2023-04-30T14:04:23.319Z,22.45
2023-04-30T14:05:23.349Z,22.30
2023-04-30T14:06:23.464Z,22.09
2023-04-30T14:07:23.422Z,22.12
2023-04-30T14:08:23.732Z,22.11
2023-04-30T14:09:23.495Z,22.09
2023-04-30T14:10:23.538Z,22.09
2023-04-30T14:11:23.572Z,22.19
2023-04-30T14:12:23.605Z,22.20
2023-04-30T14:13:23.648Z,22.01
2023-04-30T14:14:23.686Z,21.96
2023-04-30T14:15:23.725Z,22.09
2023-04-30T14:16:23.798Z,22.09